sensor_id;sensor_type;location;lat;lon;timestamp;P1;durP1;ratioP1;P2;durP2;ratioP2
57085;SDS011;42964;42.910;23.792;2023-05-07T00:00:58;31.20;;;22.88;;
57085;SDS011;42964;42.910;23.792;2023-05-07T00:05:58;32.03;;;23.48;;
57085;SDS011;42964;42.910;23.792;2023-05-07T00:10:57;37.75;;;23.75;;
57085;SDS011;42964;42.910;23.792;2023-05-07T00:15:56;36.63;;;24.63;;
57085;SDS011;42964;42.910;23.792;2023-05-07T00:20:54;32.97;;;24.13;;
57085;SDS011;42964;42.910;23.792;2023-05-07T00:25:54;29.90;;;22.15;;
57085;SDS011;42964;42.910;23.792;2023-05-07T00:30:54;30.45;;;20.17;;
57085;SDS011;42964;42.910;23.792;2023-05-07T00:40:52;28.65;;;19.70;;
57085;SDS011;42964;42.910;23.792;2023-05-07T00:45:51;33.45;;;23.67;;
57085;SDS011;42964;42.910;23.792;2023-05-07T00:50:50;33.15;;;23.40;;
57085;SDS011;42964;42.910;23.792;2023-05-07T00:55:50;31.58;;;22.55;;
57085;SDS011;42964;42.910;23.792;2023-05-07T01:00:49;32.70;;;22.42;;
57085;SDS011;42964;42.910;23.792;2023-05-07T01:05:48;32.00;;;22.85;;
57085;SDS011;42964;42.910;23.792;2023-05-07T01:10:49;33.70;;;23.17;;
57085;SDS011;42964;42.910;23.792;2023-05-07T01:15:49;35.25;;;25.00;;
57085;SDS011;42964;42.910;23.792;2023-05-07T01:25:54;29.98;;;20.30;;
57085;SDS011;42964;42.910;23.792;2023-05-07T01:30:54;29.35;;;20.52;;
57085;SDS011;42964;42.910;23.792;2023-05-07T01:35:57;35.65;;;22.25;;
57085;SDS011;42964;42.910;23.792;2023-05-07T01:40:58;30.98;;;21.10;;
57085;SDS011;42964;42.910;23.792;2023-05-07T01:45:57;32.30;;;21.33;;
57085;SDS011;42964;42.910;23.792;2023-05-07T01:50:58;29.83;;;21.40;;
57085;SDS011;42964;42.910;23.792;2023-05-07T01:55:58;30.52;;;20.65;;
57085;SDS011;42964;42.910;23.792;2023-05-07T02:00:57;30.75;;;20.88;;
57085;SDS011;42964;42.910;23.792;2023-05-07T02:05:56;31.77;;;20.25;;
57085;SDS011;42964;42.910;23.792;2023-05-07T02:10:54;30.55;;;21.13;;
57085;SDS011;42964;42.910;23.792;2023-05-07T02:15:53;32.95;;;21.48;;
57085;SDS011;42964;42.910;23.792;2023-05-07T02:20:52;30.02;;;21.17;;
57085;SDS011;42964;42.910;23.792;2023-05-07T02:25:51;31.25;;;21.23;;
57085;SDS011;42964;42.910;23.792;2023-05-07T02:30:50;32.03;;;22.58;;
57085;SDS011;42964;42.910;23.792;2023-05-07T02:35:49;37.00;;;23.00;;
57085;SDS011;42964;42.910;23.792;2023-05-07T02:40:50;31.05;;;21.83;;
57085;SDS011;42964;42.910;23.792;2023-05-07T02:45:49;28.15;;;18.50;;
57085;SDS011;42964;42.910;23.792;2023-05-07T02:50:48;28.83;;;20.63;;
57085;SDS011;42964;42.910;23.792;2023-05-07T02:55:47;32.65;;;20.30;;
57085;SDS011;42964;42.910;23.792;2023-05-07T03:00:46;27.48;;;17.98;;
57085;SDS011;42964;42.910;23.792;2023-05-07T03:05:45;23.65;;;17.55;;
57085;SDS011;42964;42.910;23.792;2023-05-07T03:10:44;28.58;;;20.98;;
57085;SDS011;42964;42.910;23.792;2023-05-07T03:15:43;31.10;;;22.00;;
57085;SDS011;42964;42.910;23.792;2023-05-07T03:20:42;33.13;;;22.27;;
57085;SDS011;42964;42.910;23.792;2023-05-07T03:25:41;38.63;;;25.40;;
57085;SDS011;42964;42.910;23.792;2023-05-07T03:30:39;43.33;;;25.95;;
57085;SDS011;42964;42.910;23.792;2023-05-07T03:35:38;38.70;;;25.70;;
57085;SDS011;42964;42.910;23.792;2023-05-07T03:40:38;43.72;;;25.38;;
57085;SDS011;42964;42.910;23.792;2023-05-07T03:45:37;41.63;;;25.00;;
57085;SDS011;42964;42.910;23.792;2023-05-07T03:50:35;40.90;;;25.52;;
57085;SDS011;42964;42.910;23.792;2023-05-07T03:55:34;92.95;;;25.65;;
57085;SDS011;42964;42.910;23.792;2023-05-07T04:00:34;51.75;;;21.88;;
57085;SDS011;42964;42.910;23.792;2023-05-07T04:05:36;29.77;;;21.55;;
57085;SDS011;42964;42.910;23.792;2023-05-07T04:10:35;33.97;;;22.95;;
57085;SDS011;42964;42.910;23.792;2023-05-07T04:15:35;36.33;;;22.85;;
57085;SDS011;42964;42.910;23.792;2023-05-07T04:20:34;36.60;;;22.95;;
57085;SDS011;42964;42.910;23.792;2023-05-07T04:25:35;34.75;;;23.50;;
57085;SDS011;42964;42.910;23.792;2023-05-07T04:30:34;31.30;;;21.38;;
57085;SDS011;42964;42.910;23.792;2023-05-07T04:35:33;35.33;;;23.75;;
57085;SDS011;42964;42.910;23.792;2023-05-07T04:40:32;27.77;;;21.58;;
57085;SDS011;42964;42.910;23.792;2023-05-07T04:45:31;28.15;;;21.30;;
57085;SDS011;42964;42.910;23.792;2023-05-07T04:50:30;29.33;;;21.00;;
57085;SDS011;42964;42.910;23.792;2023-05-07T05:00:28;29.95;;;20.63;;
57085;SDS011;42964;42.910;23.792;2023-05-07T05:05:27;27.02;;;19.35;;
57085;SDS011;42964;42.910;23.792;2023-05-07T05:10:26;25.58;;;19.08;;
57085;SDS011;42964;42.910;23.792;2023-05-07T05:15:25;28.65;;;21.92;;
57085;SDS011;42964;42.910;23.792;2023-05-07T05:20:24;29.10;;;20.30;;
57085;SDS011;42964;42.910;23.792;2023-05-07T05:25:23;29.05;;;20.75;;
57085;SDS011;42964;42.910;23.792;2023-05-07T05:30:22;28.38;;;20.77;;
57085;SDS011;42964;42.910;23.792;2023-05-07T05:35:21;27.10;;;18.58;;
57085;SDS011;42964;42.910;23.792;2023-05-07T05:40:20;20.30;;;16.35;;
57085;SDS011;42964;42.910;23.792;2023-05-07T05:45:19;18.40;;;14.63;;
57085;SDS011;42964;42.910;23.792;2023-05-07T05:50:18;19.77;;;15.38;;
57085;SDS011;42964;42.910;23.792;2023-05-07T05:55:17;17.95;;;13.40;;
57085;SDS011;42964;42.910;23.792;2023-05-07T06:00:16;21.25;;;13.70;;
57085;SDS011;42964;42.910;23.792;2023-05-07T06:05:15;17.85;;;13.57;;
57085;SDS011;42964;42.910;23.792;2023-05-07T06:10:14;16.02;;;13.70;;
57085;SDS011;42964;42.910;23.792;2023-05-07T06:20:12;18.15;;;11.48;;
57085;SDS011;42964;42.910;23.792;2023-05-07T06:25:11;15.90;;;12.68;;
57085;SDS011;42964;42.910;23.792;2023-05-07T06:30:10;17.88;;;13.63;;
57085;SDS011;42964;42.910;23.792;2023-05-07T06:35:09;18.45;;;14.40;;
57085;SDS011;42964;42.910;23.792;2023-05-07T06:45:07;15.63;;;11.67;;
57085;SDS011;42964;42.910;23.792;2023-05-07T06:50:07;13.50;;;10.45;;
57085;SDS011;42964;42.910;23.792;2023-05-07T06:55:07;12.93;;;9.13;;
57085;SDS011;42964;42.910;23.792;2023-05-07T07:00:06;12.65;;;10.18;;
57085;SDS011;42964;42.910;23.792;2023-05-07T07:05:07;16.83;;;10.63;;
57085;SDS011;42964;42.910;23.792;2023-05-07T07:10:06;11.68;;;9.00;;
57085;SDS011;42964;42.910;23.792;2023-05-07T07:15:06;11.77;;;9.15;;
57085;SDS011;42964;42.910;23.792;2023-05-07T07:20:05;11.18;;;8.95;;
57085;SDS011;42964;42.910;23.792;2023-05-07T07:25:05;11.63;;;8.15;;
57085;SDS011;42964;42.910;23.792;2023-05-07T07:30:04;12.30;;;8.73;;
57085;SDS011;42964;42.910;23.792;2023-05-07T07:35:04;10.18;;;7.75;;
57085;SDS011;42964;42.910;23.792;2023-05-07T07:40:04;11.80;;;7.63;;
57085;SDS011;42964;42.910;23.792;2023-05-07T07:45:03;12.73;;;7.95;;
57085;SDS011;42964;42.910;23.792;2023-05-07T07:50:03;11.20;;;6.88;;
57085;SDS011;42964;42.910;23.792;2023-05-07T07:55:02;8.43;;;6.50;;
57085;SDS011;42964;42.910;23.792;2023-05-07T08:00:02;8.95;;;6.38;;
57085;SDS011;42964;42.910;23.792;2023-05-07T08:05:01;8.90;;;6.30;;
57085;SDS011;42964;42.910;23.792;2023-05-07T08:10:00;9.32;;;5.68;;
57085;SDS011;42964;42.910;23.792;2023-05-07T08:14:59;11.13;;;5.95;;
57085;SDS011;42964;42.910;23.792;2023-05-07T08:19:58;7.65;;;5.63;;
57085;SDS011;42964;42.910;23.792;2023-05-07T08:24:57;7.75;;;5.70;;
57085;SDS011;42964;42.910;23.792;2023-05-07T08:29:56;9.55;;;5.97;;
57085;SDS011;42964;42.910;23.792;2023-05-07T08:34:55;8.35;;;5.50;;
57085;SDS011;42964;42.910;23.792;2023-05-07T08:39:54;6.53;;;5.40;;
57085;SDS011;42964;42.910;23.792;2023-05-07T08:44:53;9.77;;;5.47;;
57085;SDS011;42964;42.910;23.792;2023-05-07T08:49:56;7.82;;;5.53;;
57085;SDS011;42964;42.910;23.792;2023-05-07T08:54:55;9.73;;;5.38;;
57085;SDS011;42964;42.910;23.792;2023-05-07T08:59:54;7.32;;;5.13;;
57085;SDS011;42964;42.910;23.792;2023-05-07T09:04:53;8.13;;;5.15;;
57085;SDS011;42964;42.910;23.792;2023-05-07T09:09:52;5.97;;;4.65;;
57085;SDS011;42964;42.910;23.792;2023-05-07T09:14:53;7.15;;;4.35;;
57085;SDS011;42964;42.910;23.792;2023-05-07T09:19:52;7.53;;;4.25;;
57085;SDS011;42964;42.910;23.792;2023-05-07T09:24:52;5.07;;;3.63;;
57085;SDS011;42964;42.910;23.792;2023-05-07T09:29:51;7.80;;;3.97;;
57085;SDS011;42964;42.910;23.792;2023-05-07T09:34:50;4.10;;;2.97;;
57085;SDS011;42964;42.910;23.792;2023-05-07T09:39:49;5.40;;;3.47;;
57085;SDS011;42964;42.910;23.792;2023-05-07T09:44:48;8.30;;;4.13;;
57085;SDS011;42964;42.910;23.792;2023-05-07T09:49:47;6.68;;;3.83;;
57085;SDS011;42964;42.910;23.792;2023-05-07T09:54:47;6.07;;;3.80;;
57085;SDS011;42964;42.910;23.792;2023-05-07T09:59:48;10.90;;;4.10;;
57085;SDS011;42964;42.910;23.792;2023-05-07T10:04:50;5.65;;;3.78;;
57085;SDS011;42964;42.910;23.792;2023-05-07T10:09:49;6.63;;;3.80;;
57085;SDS011;42964;42.910;23.792;2023-05-07T10:14:49;7.95;;;4.10;;
57085;SDS011;42964;42.910;23.792;2023-05-07T10:19:50;4.65;;;4.03;;
57085;SDS011;42964;42.910;23.792;2023-05-07T10:24:52;5.40;;;3.78;;
57085;SDS011;42964;42.910;23.792;2023-05-07T10:35:02;8.30;;;3.85;;
57085;SDS011;42964;42.910;23.792;2023-05-07T10:40:05;6.63;;;3.95;;
57085;SDS011;42964;42.910;23.792;2023-05-07T10:45:12;5.25;;;3.85;;
57085;SDS011;42964;42.910;23.792;2023-05-07T11:05:22;5.40;;;3.58;;
57085;SDS011;42964;42.910;23.792;2023-05-07T11:10:21;5.35;;;3.63;;
57085;SDS011;42964;42.910;23.792;2023-05-07T11:20:50;7.68;;;3.78;;
57085;SDS011;42964;42.910;23.792;2023-05-07T11:25:49;6.15;;;3.28;;
57085;SDS011;42964;42.910;23.792;2023-05-07T11:30:49;8.00;;;3.47;;
57085;SDS011;42964;42.910;23.792;2023-05-07T11:35:48;5.93;;;3.35;;
57085;SDS011;42964;42.910;23.792;2023-05-07T11:40:53;4.78;;;3.70;;
57085;SDS011;42964;42.910;23.792;2023-05-07T11:45:54;4.13;;;3.22;;
57085;SDS011;42964;42.910;23.792;2023-05-07T11:51:03;6.47;;;3.70;;
57085;SDS011;42964;42.910;23.792;2023-05-07T11:56:06;4.88;;;3.80;;
57085;SDS011;42964;42.910;23.792;2023-05-07T12:01:10;4.95;;;3.40;;
57085;SDS011;42964;42.910;23.792;2023-05-07T12:06:10;4.85;;;3.30;;
57085;SDS011;42964;42.910;23.792;2023-05-07T12:11:21;4.20;;;3.30;;
57085;SDS011;42964;42.910;23.792;2023-05-07T12:16:21;5.70;;;3.67;;
57085;SDS011;42964;42.910;23.792;2023-05-07T12:21:21;5.35;;;3.50;;
57085;SDS011;42964;42.910;23.792;2023-05-07T12:26:21;11.00;;;4.65;;
57085;SDS011;42964;42.910;23.792;2023-05-07T12:31:20;7.25;;;3.67;;
57085;SDS011;42964;42.910;23.792;2023-05-07T12:36:19;5.45;;;3.72;;
57085;SDS011;42964;42.910;23.792;2023-05-07T12:41:19;10.50;;;6.88;;
57085;SDS011;42964;42.910;23.792;2023-05-07T12:46:24;6.32;;;4.28;;
57085;SDS011;42964;42.910;23.792;2023-05-07T12:51:23;7.13;;;4.38;;
57085;SDS011;42964;42.910;23.792;2023-05-07T12:56:22;7.80;;;4.75;;
57085;SDS011;42964;42.910;23.792;2023-05-07T13:01:21;9.93;;;4.22;;
57085;SDS011;42964;42.910;23.792;2023-05-07T13:06:22;8.35;;;4.78;;
57085;SDS011;42964;42.910;23.792;2023-05-07T13:11:21;5.47;;;3.30;;
57085;SDS011;42964;42.910;23.792;2023-05-07T13:16:21;8.90;;;5.72;;
57085;SDS011;42964;42.910;23.792;2023-05-07T13:21:20;6.13;;;3.42;;
57085;SDS011;42964;42.910;23.792;2023-05-07T13:26:19;5.72;;;3.97;;
57085;SDS011;42964;42.910;23.792;2023-05-07T13:31:18;5.93;;;3.92;;
57085;SDS011;42964;42.910;23.792;2023-05-07T13:36:19;5.82;;;3.50;;
57085;SDS011;42964;42.910;23.792;2023-05-07T13:41:18;5.72;;;3.40;;
57085;SDS011;42964;42.910;23.792;2023-05-07T13:46:17;6.13;;;4.07;;
57085;SDS011;42964;42.910;23.792;2023-05-07T13:51:16;9.80;;;3.92;;
57085;SDS011;42964;42.910;23.792;2023-05-07T13:56:15;6.72;;;3.83;;
57085;SDS011;42964;42.910;23.792;2023-05-07T14:01:14;5.57;;;3.40;;
57085;SDS011;42964;42.910;23.792;2023-05-07T14:06:13;14.52;;;6.63;;
57085;SDS011;42964;42.910;23.792;2023-05-07T14:11:12;7.18;;;3.72;;
57085;SDS011;42964;42.910;23.792;2023-05-07T14:16:11;7.30;;;4.13;;
57085;SDS011;42964;42.910;23.792;2023-05-07T14:21:10;5.25;;;3.45;;
57085;SDS011;42964;42.910;23.792;2023-05-07T14:26:09;5.68;;;3.78;;
57085;SDS011;42964;42.910;23.792;2023-05-07T14:31:08;5.43;;;3.45;;
57085;SDS011;42964;42.910;23.792;2023-05-07T14:36:07;4.32;;;3.63;;
57085;SDS011;42964;42.910;23.792;2023-05-07T14:41:06;5.57;;;3.97;;
57085;SDS011;42964;42.910;23.792;2023-05-07T14:46:04;3.90;;;3.13;;
57085;SDS011;42964;42.910;23.792;2023-05-07T14:51:03;10.10;;;4.07;;
57085;SDS011;42964;42.910;23.792;2023-05-07T14:56:03;6.25;;;3.60;;
57085;SDS011;42964;42.910;23.792;2023-05-07T15:01:02;6.30;;;3.45;;
57085;SDS011;42964;42.910;23.792;2023-05-07T15:06:02;4.22;;;2.92;;
57085;SDS011;42964;42.910;23.792;2023-05-07T15:11:01;4.38;;;3.30;;
57085;SDS011;42964;42.910;23.792;2023-05-07T15:16:00;5.32;;;3.60;;
57085;SDS011;42964;42.910;23.792;2023-05-07T15:20:59;5.05;;;3.30;;
57085;SDS011;42964;42.910;23.792;2023-05-07T15:25:58;7.75;;;3.17;;
57085;SDS011;42964;42.910;23.792;2023-05-07T15:30:57;4.72;;;3.13;;
57085;SDS011;42964;42.910;23.792;2023-05-07T15:35:56;4.05;;;2.90;;
57085;SDS011;42964;42.910;23.792;2023-05-07T15:40:57;4.95;;;3.30;;
57085;SDS011;42964;42.910;23.792;2023-05-07T15:45:56;5.40;;;3.33;;
57085;SDS011;42964;42.910;23.792;2023-05-07T15:50:55;5.43;;;3.08;;
57085;SDS011;42964;42.910;23.792;2023-05-07T15:55:54;5.15;;;3.30;;
57085;SDS011;42964;42.910;23.792;2023-05-07T16:00:53;5.85;;;3.42;;
57085;SDS011;42964;42.910;23.792;2023-05-07T16:05:52;9.48;;;4.10;;
57085;SDS011;42964;42.910;23.792;2023-05-07T16:10:51;9.95;;;3.38;;
57085;SDS011;42964;42.910;23.792;2023-05-07T16:15:56;5.00;;;3.33;;
57085;SDS011;42964;42.910;23.792;2023-05-07T16:20:56;6.47;;;3.80;;
57085;SDS011;42964;42.910;23.792;2023-05-07T16:25:58;4.85;;;3.35;;
57085;SDS011;42964;42.910;23.792;2023-05-07T16:30:56;5.78;;;3.88;;
57085;SDS011;42964;42.910;23.792;2023-05-07T16:35:55;6.25;;;4.07;;
57085;SDS011;42964;42.910;23.792;2023-05-07T16:40:54;6.03;;;3.38;;
57085;SDS011;42964;42.910;23.792;2023-05-07T16:45:53;5.47;;;3.90;;
57085;SDS011;42964;42.910;23.792;2023-05-07T16:50:52;6.18;;;3.80;;
57085;SDS011;42964;42.910;23.792;2023-05-07T16:55:51;6.50;;;3.78;;
57085;SDS011;42964;42.910;23.792;2023-05-07T17:00:53;5.63;;;3.40;;
57085;SDS011;42964;42.910;23.792;2023-05-07T17:05:52;6.13;;;4.60;;
57085;SDS011;42964;42.910;23.792;2023-05-07T17:10:52;10.45;;;4.60;;
57085;SDS011;42964;42.910;23.792;2023-05-07T17:15:51;7.50;;;4.57;;
57085;SDS011;42964;42.910;23.792;2023-05-07T17:20:50;13.75;;;5.80;;
57085;SDS011;42964;42.910;23.792;2023-05-07T17:25:49;8.68;;;5.03;;
57085;SDS011;42964;42.910;23.792;2023-05-07T17:30:48;9.32;;;5.93;;
57085;SDS011;42964;42.910;23.792;2023-05-07T17:35:47;14.93;;;5.65;;
57085;SDS011;42964;42.910;23.792;2023-05-07T17:40:47;13.00;;;6.07;;
57085;SDS011;42964;42.910;23.792;2023-05-07T17:45:46;12.30;;;6.10;;
57085;SDS011;42964;42.910;23.792;2023-05-07T17:50:45;10.63;;;6.00;;
57085;SDS011;42964;42.910;23.792;2023-05-07T17:55:44;10.88;;;6.30;;
57085;SDS011;42964;42.910;23.792;2023-05-07T18:00:43;11.75;;;6.93;;
57085;SDS011;42964;42.910;23.792;2023-05-07T18:05:42;18.08;;;8.05;;
57085;SDS011;42964;42.910;23.792;2023-05-07T18:10:42;12.95;;;6.78;;
57085;SDS011;42964;42.910;23.792;2023-05-07T18:15:41;16.08;;;8.05;;
57085;SDS011;42964;42.910;23.792;2023-05-07T18:20:40;11.25;;;7.10;;
57085;SDS011;42964;42.910;23.792;2023-05-07T18:25:39;9.40;;;5.60;;
57085;SDS011;42964;42.910;23.792;2023-05-07T18:30:38;8.38;;;4.85;;
57085;SDS011;42964;42.910;23.792;2023-05-07T18:35:36;7.95;;;4.95;;
57085;SDS011;42964;42.910;23.792;2023-05-07T18:40:35;9.43;;;4.40;;
57085;SDS011;42964;42.910;23.792;2023-05-07T18:45:34;7.75;;;4.88;;
57085;SDS011;42964;42.910;23.792;2023-05-07T18:50:35;6.57;;;4.53;;
57085;SDS011;42964;42.910;23.792;2023-05-07T18:55:34;12.43;;;6.50;;
57085;SDS011;42964;42.910;23.792;2023-05-07T19:00:33;11.45;;;4.90;;
57085;SDS011;42964;42.910;23.792;2023-05-07T19:05:32;7.18;;;4.32;;
57085;SDS011;42964;42.910;23.792;2023-05-07T19:10:31;6.40;;;4.60;;
57085;SDS011;42964;42.910;23.792;2023-05-07T19:15:30;7.43;;;4.40;;
57085;SDS011;42964;42.910;23.792;2023-05-07T19:20:29;7.07;;;4.60;;
57085;SDS011;42964;42.910;23.792;2023-05-07T19:25:28;9.82;;;5.72;;
57085;SDS011;42964;42.910;23.792;2023-05-07T19:35:25;13.90;;;6.33;;
57085;SDS011;42964;42.910;23.792;2023-05-07T19:45:23;12.80;;;6.83;;
57085;SDS011;42964;42.910;23.792;2023-05-07T19:50:22;12.32;;;7.47;;
57085;SDS011;42964;42.910;23.792;2023-05-07T20:00:20;18.67;;;7.83;;
57085;SDS011;42964;42.910;23.792;2023-05-07T20:05:19;14.85;;;7.78;;
57085;SDS011;42964;42.910;23.792;2023-05-07T20:10:18;10.00;;;7.50;;
57085;SDS011;42964;42.910;23.792;2023-05-07T20:15:17;16.77;;;8.55;;
57085;SDS011;42964;42.910;23.792;2023-05-07T20:20:17;11.00;;;7.60;;
57085;SDS011;42964;42.910;23.792;2023-05-07T20:25:16;13.45;;;8.88;;
57085;SDS011;42964;42.910;23.792;2023-05-07T20:35:14;13.50;;;8.20;;
57085;SDS011;42964;42.910;23.792;2023-05-07T20:40:13;17.65;;;8.93;;
57085;SDS011;42964;42.910;23.792;2023-05-07T20:50:10;15.82;;;8.70;;
57085;SDS011;42964;42.910;23.792;2023-05-07T20:55:09;11.25;;;7.55;;
57085;SDS011;42964;42.910;23.792;2023-05-07T21:05:07;14.00;;;8.52;;
57085;SDS011;42964;42.910;23.792;2023-05-07T21:15:06;16.73;;;9.27;;
57085;SDS011;42964;42.910;23.792;2023-05-07T21:20:05;16.83;;;11.45;;
57085;SDS011;42964;42.910;23.792;2023-05-07T21:25:05;17.75;;;11.23;;
57085;SDS011;42964;42.910;23.792;2023-05-07T21:30:04;20.25;;;12.73;;
57085;SDS011;42964;42.910;23.792;2023-05-07T21:35:04;17.85;;;11.60;;
57085;SDS011;42964;42.910;23.792;2023-05-07T21:40:04;19.45;;;12.20;;
57085;SDS011;42964;42.910;23.792;2023-05-07T21:45:04;15.20;;;10.60;;
57085;SDS011;42964;42.910;23.792;2023-05-07T21:50:03;16.48;;;9.95;;
57085;SDS011;42964;42.910;23.792;2023-05-07T21:55:03;13.50;;;9.43;;
57085;SDS011;42964;42.910;23.792;2023-05-07T22:00:02;12.50;;;9.25;;
57085;SDS011;42964;42.910;23.792;2023-05-07T22:05:02;14.63;;;9.65;;
57085;SDS011;42964;42.910;23.792;2023-05-07T22:14:59;12.98;;;9.00;;
57085;SDS011;42964;42.910;23.792;2023-05-07T22:24:57;13.05;;;9.07;;
57085;SDS011;42964;42.910;23.792;2023-05-07T22:29:56;14.25;;;8.80;;
57085;SDS011;42964;42.910;23.792;2023-05-07T22:34:55;13.85;;;9.27;;
57085;SDS011;42964;42.910;23.792;2023-05-07T22:39:54;12.15;;;9.07;;
57085;SDS011;42964;42.910;23.792;2023-05-07T22:44:53;14.60;;;8.63;;
57085;SDS011;42964;42.910;23.792;2023-05-07T22:49:53;13.55;;;8.88;;
57085;SDS011;42964;42.910;23.792;2023-05-07T22:59:54;13.05;;;9.23;;
57085;SDS011;42964;42.910;23.792;2023-05-07T23:04:57;13.63;;;10.57;;
57085;SDS011;42964;42.910;23.792;2023-05-07T23:09:57;18.17;;;10.63;;
57085;SDS011;42964;42.910;23.792;2023-05-07T23:19:55;16.35;;;11.15;;
57085;SDS011;42964;42.910;23.792;2023-05-07T23:29:53;16.60;;;10.07;;
57085;SDS011;42964;42.910;23.792;2023-05-07T23:34:52;16.10;;;11.38;;
57085;SDS011;42964;42.910;23.792;2023-05-07T23:39:53;14.40;;;10.55;;
57085;SDS011;42964;42.910;23.792;2023-05-07T23:44:52;17.65;;;12.00;;
57085;SDS011;42964;42.910;23.792;2023-05-07T23:49:51;16.98;;;11.35;;
57085;SDS011;42964;42.910;23.792;2023-05-07T23:54:50;17.63;;;12.60;;
57085;SDS011;42964;42.910;23.792;2023-05-07T23:59:49;19.67;;;13.80;;
